Weather observations for the past three days for
Buffalo, Buffalo Municipal Airport
Imperial (Metric)
Date Time (cdt) Wind (mph) Vis. (mi.) Weather Sky Cond. Temperature (ºF) Relative Humidity Wind Chill (°F) Heat Index (°F) Pressure Precipitation (in)
Air Dwpt 6 hour altimeter (in) sea level (mb) 1 hr 3 hr 6 hr
Max. Min.
01 20:55 Calm 10.00 A Few Clouds FEW120 66.2 64.4 94% 29.93 0.0
01 20:35 Calm 9.00 Fair CLR 68 64.4 88% 29.92 0.0
01 20:15 Calm 10.00 Fair CLR 71.6 62.6 73% 29.92 0.0
01 19:55 Calm 10.00 Fair CLR 75.2 59 57% 78 29.91 0.0
01 19:35 N 3 10.00 Fair CLR 75.2 60.8 61% 77 29.91 0.0
01 19:15 W 5 10.00 Fair CLR 78.8 59 51% 80 29.92 0.0
01 18:55 NW 6 10.00 Fair CLR 78.8 60.8 54% 80 29.92 0.0
01 18:35 W 5 10.00 Fair CLR 80.6 60.8 51% 81 29.93 0.0
01 18:15 W 5 10.00 Fair CLR 80.6 59 48% 81 29.93 0.0
01 17:55 W 7 10.00 Fair CLR 80.6 59 48% 81 29.93 0.0
01 17:35 W 8 10.00 Fair CLR 82.4 57.2 42% 82 29.93 0.0
01 17:15 W 5 10.00 Fair CLR 82.4 59 45% 82 29.93 0.0
01 16:55 SW 5 10.00 Fair CLR 82.4 59 45% 82 29.92 0.0
01 16:35 SW 6 10.00 Fair CLR 82.4 59 45% 82 29.93 0.0
01 16:15 SW 6 10.00 Fair CLR 82.4 55.4 40% 82 29.92 0.0
01 15:55 SW 6 10.00 Fair CLR 82.4 57.2 42% 82 29.92 0.0
01 15:35 Calm 10.00 Fair CLR 80.6 60.8 51% 81 29.92 0.0
01 15:15 Vrbl 5 10.00 Fair CLR 84.2 55.4 37% 83 29.93 0.0
01 14:55 W 6 10.00 Fair CLR 86 53.6 33% 84 29.94 0.0
01 14:35 SW 6 9.00 Fair CLR 84.2 55.4 37% 83 29.94 0.0
01 14:15 SW 8 10.00 Fair CLR 84.2 53.6 35% 83 29.94 0.0
01 13:55 Vrbl 5 10.00 Fair CLR 84.2 55.4 37% 83 29.94 0.0
01 13:35 Calm 10.00 Fair CLR 82.4 57.2 42% 82 29.94 0.0
01 13:15 Calm 10.00 Fair CLR 82.4 59 45% 82 29.95 0.0
01 12:55 Calm 10.00 Fair CLR 80.6 57.2 45% 81 29.96 0.0
01 12:35 Calm 10.00 Fair CLR 80.6 55.4 42% 81 29.96 0.0
01 12:15 Calm 10.00 Fair CLR 80.6 55.4 42% 81 29.97 0.0
01 11:55 Vrbl 3 10.00 Fair CLR 80.6 55.4 42% 81 29.97 0.0
01 11:35 Vrbl 3 10.00 Fair CLR 78.8 62.6 58% 80 29.97 0.0
01 11:15 Calm 10.00 Fair CLR 78.8 62.6 58% 80 29.97 0.0
01 10:55 N 7 10.00 Fair CLR 77 64.4 65% 79 29.96 0.0
01 10:35 N 7 10.00 Fair CLR 75.2 64.4 69% 77 29.97 0.0
01 10:15 N 6 10.00 Fair CLR 75.2 62.6 65% 77 29.97 0.0
01 09:55 Vrbl 5 10.00 Fair CLR 75.2 62.6 65% 77 29.98 0.0
01 09:35 W 6 10.00 Fair CLR 75.2 62.6 65% 77 29.97 0.0
01 09:15 W 5 10.00 Fair CLR 71.6 62.6 73% 29.97 0.0
01 08:55 Calm 10.00 Fair CLR 69.8 64.4 83% 29.97 0.0
01 08:35 Vrbl 3 10.00 Fair CLR 68 64.4 88% 29.98 0.0
01 08:15 SW 3 10.00 Fair CLR 64.4 62.6 94% 29.98 0.0
01 07:55 Calm 10.00 Fair CLR 62.6 62.6 100% 29.97 0.0
01 07:35 Calm 7.00 Fair CLR 60.8 60.8 100% 29.97 0.0
01 07:15 Calm 8.00 Fair CLR 60.8 60.8 100% 29.96 0.0
01 06:55 Calm 0.25 Fog VV002 55.4 55.4 100% 29.95 0.0
01 06:35 Calm 6.00 Fog/Mist CLR 55.4 55.4 100% 29.95 0.0
01 06:15 Calm 7.00 Partly Cloudy FEW038 FEW045 SCT050 55.4 55.4 100% 29.94 0.0
01 05:55 Calm 0.50 Fog/Mist BKN023 BKN037 OVC045 57.2 57.2 100% 29.94 0.0
01 05:35 Calm 2.50 Fog/Mist SCT037 BKN047 BKN055 57.2 57.2 100% 29.94 0.0
01 05:15 Calm 2.00 Fog/Mist FEW021 SCT037 BKN047 57.2 57.2 100% 29.94 0.0
01 04:55 Calm 0.25 Fog BKN022 BKN031 OVC040 57.2 57.2 100% 29.94 0.0
01 04:35 Calm 3.00 Fog/Mist BKN040 OVC047 59 59 100% 29.93 0.0
01 04:15 Calm 9.00 Mostly Cloudy FEW041 BKN048 BKN055 59 59 100% 29.92 0.0
01 03:55 S 5 10.00 Mostly Cloudy SCT041 BKN049 BKN055 59 59 100% 29.92 0.0
01 03:35 Calm 7.00 Mostly Cloudy FEW026 FEW038 BKN043 57.2 57.2 100% 29.92 0.0
01 03:15 Calm 9.00 Overcast FEW026 BKN040 OVC055 57.2 57.2 100% 29.92 0.0
01 02:55 Calm 9.00 Mostly Cloudy FEW031 SCT041 BKN047 57.2 57.2 100% 29.92 0.0
01 02:35 Calm 1.50 Fog/Mist SCT029 BKN035 OVC055 57.2 57.2 100% 29.92 0.0
01 02:15 Calm 1.75 Fog/Mist SCT028 BKN034 OVC055 57.2 57.2 100% 29.93 0.0
01 01:55 Calm 1.75 Fog/Mist SCT027 BKN047 OVC055 57.2 57.2 100% 29.94 0.0
01 01:35 Calm 7.00 Mostly Cloudy FEW027 SCT041 BKN049 59 59 100% 29.94 0.0
01 01:15 Calm 7.00 Overcast FEW028 SCT041 OVC055 59 59 100% 29.94 0.0
01 00:55 Calm 10.00 Mostly Cloudy FEW031 SCT041 BKN060 59 59 100% 29.94 0.0
01 00:35 Calm 10.00 Mostly Cloudy FEW028 FEW036 BKN060 59 59 100% 29.94 0.0
01 00:15 Calm 10.00 Mostly Cloudy SCT045 BKN060 60.8 60.8 100% 29.93 0.0
31 23:55 Calm 10.00 Partly Cloudy FEW034 SCT045 SCT050 60.8 60.8 100% 29.93 0.0
31 23:35 Calm 9.00 A Few Clouds FEW047 FEW060 60.8 60.8 100% 29.92 0.0
31 23:15 Calm 9.00 A Few Clouds FEW049 FEW060 62.6 62.6 100% 29.92 0.0
31 22:55 Calm 10.00 A Few Clouds FEW050 FEW055 62.6 62.6 100% 29.92 0.0
31 22:35 Calm 10.00 A Few Clouds FEW050 62.6 62.6 100% 29.92 0.0
31 22:15 Calm 10.00 Fair CLR 62.6 62.6 100% 29.92 0.0
31 21:55 Calm 10.00 Fair CLR 68 64.4 88% 29.91 0.0
31 21:35 Calm 10.00 A Few Clouds FEW048 68 64.4 88% 29.91 0.0
31 21:15 Calm 10.00 Fair CLR 69.8 64.4 83% 29.91 0.0
31 20:55 SW 3 10.00 Fair CLR 68 64.4 88% 29.91 0.0
31 20:35 SW 3 10.00 Fair CLR 69.8 64.4 83% 29.9 0.0
31 20:15 SW 3 10.00 Fair CLR 71.6 64.4 78% 29.89 0.0
31 19:55 SW 5 10.00 Fair CLR 71.6 64.4 78% 29.89 0.0
31 19:35 W 5 10.00 Fair CLR 78.8 62.6 58% 80 29.89 0.0
31 19:15 W 5 10.00 Fair CLR 80.6 60.8 51% 81 29.89 0.0
31 18:55 W 6 10.00 Fair CLR 82.4 62.6 51% 83 29.89 0.0
31 18:35 W 8 10.00 Fair CLR 82.4 64.4 55% 84 29.89 0.0
31 18:15 SW 7 10.00 Fair CLR 84.2 66.2 55% 87 29.89 0.0
31 17:55 W 7 10.00 Fair CLR 86 62.6 46% 87 29.89 0.0
31 17:35 W 7 10.00 Fair CLR 86 60.8 43% 86 29.88 0.0
31 17:15 W 7 10.00 Fair CLR 86 57.2 38% 85 29.88 0.0
31 16:55 W 6 G 13 10.00 Fair CLR 87.8 59 38% 87 29.88 0.0
31 16:35 W 10 10.00 Fair CLR 87.8 60.8 40% 88 29.87 0.0
31 16:15 W 7 10.00 Fair CLR 87.8 59 38% 87 29.87 0.0
31 15:55 W 8 10.00 Fair CLR 86 59 40% 85 29.87 0.0
31 15:35 W 9 10.00 Fair CLR 86 60.8 43% 86 29.87 0.0
31 15:15 W 8 10.00 Fair CLR 87.8 62.6 43% 88 29.87 0.0
31 14:55 Vrbl 3 10.00 Fair CLR 86 60.8 43% 86 29.87 0.0
31 14:35 Vrbl 5 10.00 Fair CLR 86 60.8 43% 86 29.86 0.0
31 14:15 Vrbl 5 10.00 Fair CLR 86 64.4 49% 87 29.86 0.0
31 13:55 Vrbl 5 10.00 Fair CLR 84.2 64.4 51% 86 29.87 0.0
31 13:35 N 8 10.00 Fair CLR 84.2 66.2 55% 87 29.86 0.0
31 13:15 N 6 10.00 Fair CLR 84.2 66.2 55% 87 29.86 0.0
31 12:55 N 5 10.00 Fair CLR 84.2 68 58% 87 29.86 0.0
31 12:35 NW 7 G 13 10.00 Fair CLR 82.4 69.8 66% 86 29.87 0.0
31 12:15 NW 6 10.00 Fair CLR 82.4 69.8 66% 86 29.87 0.0
31 11:55 NE 6 10.00 Fair CLR 80.6 71.6 74% 85 29.87 0.0
31 11:35 N 8 9.00 Light Rain SCT120 80.6 71.6 74% 85 29.87 0.0
31 11:15 NW 7 10.00 Partly Cloudy SCT120 78.8 69.8 74% 81 29.87 0.0
31 10:55 N 8 10.00 Fair CLR 78.8 71.6 79% 82 29.86 0.0
31 10:35 N 10 10.00 Partly Cloudy SCT015 78.8 71.6 79% 82 29.86 0.0
31 10:15 N 9 10.00 A Few Clouds FEW014 77 73.4 89% 78 29.85 0.0
31 09:55 NW 8 10.00 Partly Cloudy SCT013 77 71.6 83% 78 29.85 0.0
31 09:35 NW 8 10.00 Partly Cloudy SCT013 77 73.4 89% 78 29.83 0.0
31 09:15 NW 8 9.00 Fair CLR 77 73.4 89% 78 29.83 0.0
31 08:55 W 6 10.00 Fair CLR 75.2 71.6 89% 75 29.82 0.0
31 08:35 W 5 9.00 Fair CLR 73.4 71.6 94% 29.81 0.0
31 08:15 W 5 7.00 A Few Clouds FEW004 71.6 71.6 100% 29.81 0.0
31 07:55 SW 5 5.00 Fog/Mist FEW003 69.8 69.8 100% 29.81 0.0
31 07:35 Calm 2.00 Fog/Mist FEW003 68 68 100% 29.8 0.0
31 07:15 Calm 0.50 Fog BKN003 68 68 100% 29.79 0.0
31 06:55 Calm 0.50 Fog BKN003 66.2 66.2 100% 29.77 0.0
31 06:35 Calm 0.50 Fog OVC003 68 68 100% 29.76 0.0
31 06:15 Calm 1.00 Fog/Mist OVC003 68 68 100% 29.76 0.0
31 05:55 Calm 2.50 Unknown Precip Fog/Mist OVC003 68 68 100% 29.76 0.0
31 05:35 Calm 4.00 Fog/Mist OVC003 68 68 100% 29.76 0.0
31 05:15 Calm 4.00 Fog/Mist BKN004 69.8 69.8 100% 29.76 0.0
31 04:55 S 3 5.00 Fog/Mist FEW005 69.8 69.8 100% 29.75 0.0
31 04:35 S 3 7.00 A Few Clouds FEW006 69.8 69.8 100% 29.75 0.0
31 04:15 S 5 6.00 Fog/Mist CLR 69.8 69.8 100% 29.74 0.0
31 03:55 S 3 8.00 Fair CLR 69.8 69.8 100% 29.75 0.0
31 03:35 S 5 9.00 Fair CLR 69.8 69.8 100% 29.74 0.0
31 03:15 S 5 9.00 Fair CLR 71.6 69.8 94% 29.74 0.0
31 02:55 S 3 10.00 A Few Clouds FEW060 71.6 69.8 94% 29.74 0.0
31 02:35 S 5 10.00 Partly Cloudy SCT060 71.6 69.8 94% 29.74 0.0
31 02:15 S 6 10.00 Mostly Cloudy FEW034 BKN060 71.6 71.6 100% 29.74 0.0
31 01:55 S 6 10.00 Partly Cloudy SCT033 SCT047 SCT065 71.6 71.6 100% 29.74 0.0
31 01:35 S 7 G 14 10.00 Mostly Cloudy FEW021 SCT027 BKN033 73.4 71.6 94% 29.74 0.0
31 01:15 S 9 10.00 Partly Cloudy SCT021 SCT027 SCT055 73.4 71.6 94% 29.75 0.0
31 00:55 S 9 G 15 10.00 Partly Cloudy SCT060 SCT070 73.4 71.6 94% 29.75 0.0
31 00:35 S 7 10.00 Overcast FEW048 OVC060 73.4 71.6 94% 29.76 0.0
31 00:15 S 9 10.00 Overcast BKN050 BKN060 OVC070 73.4 69.8 89% 29.76 0.0
30 23:55 SE 8 10.00 Overcast FEW043 BKN055 OVC065 73.4 69.8 89% 29.77 0.0
30 23:35 S 8 10.00 Overcast BKN044 OVC050 73.4 69.8 89% 29.78 0.0
30 23:15 S 6 G 16 10.00 Mostly Cloudy FEW041 BKN047 BKN055 75.2 69.8 83% 75 29.78 0.0
30 22:55 SE 8 10.00 Mostly Cloudy SCT036 BKN043 BKN049 75.2 69.8 83% 75 29.78 0.0
30 22:35 S 8 10.00 Mostly Cloudy FEW034 BKN041 BKN085 75.2 69.8 83% 75 29.78 0.0
30 22:15 S 8 10.00 Mostly Cloudy SCT033 BKN039 BKN044 75.2 69.8 83% 75 29.78 0.0
30 21:55 SE 8 10.00 Overcast BKN036 OVC100 77 69.8 79% 79 29.77 0.0
30 21:35 SE 8 G 17 10.00 Overcast BKN036 OVC100 77 69.8 79% 79 29.77 0.0
30 21:15 S 8 G 15 10.00 Overcast BKN037 BKN042 OVC110 78.8 69.8 74% 81 29.77 0.0
30 20:55 S 8 10.00 Mostly Cloudy BKN038 BKN044 78.8 69.8 74% 81 29.77 0.0
30 20:35 SE 6 10.00 A Few Clouds FEW045 FEW120 78.8 71.6 79% 82 29.77 0.0
30 20:15 SE 6 10.00 Partly Cloudy SCT120 77 73.4 89% 78 29.77 0.0
30 19:55 E 6 10.00 Mostly Cloudy FEW037 BKN120 78.8 73.4 84% 82 29.76 0.0
30 19:35 E 6 10.00 Overcast BKN037 OVC120 80.6 73.4 79% 85 29.76 0.0
30 19:15 E 6 10.00 Overcast OVC037 80.6 73.4 79% 85 29.76 0.0
30 18:55 E 8 10.00 Partly Cloudy SCT037 82.4 73.4 74% 88 29.76 0.0
30 18:35 E 9 10.00 Fair CLR 82.4 73.4 74% 88 29.75 0.0
30 18:15 E 10 10.00 Fair CLR 82.4 73.4 74% 88 29.75 0.0
30 17:55 E 9 10.00 Fair CLR 82.4 73.4 74% 88 29.75 0.0
30 17:35 SE 7 G 14 10.00 Fair CLR 84.2 73.4 70% 91 29.75 0.0
30 17:15 E 8 10.00 Fair CLR 82.4 73.4 74% 88 29.76 0.0
30 16:55 E 7 G 14 10.00 A Few Clouds FEW033 82.4 73.4 74% 88 29.76 0.0
30 16:35 E 13 10.00 Partly Cloudy SCT033 82.4 73.4 74% 88 29.76 0.0
30 16:15 SE 9 G 16 10.00 Partly Cloudy SCT030 SCT035 84.2 73.4 70% 91 29.77 0.0
30 15:55 E 6 G 15 10.00 Partly Cloudy SCT025 82.4 73.4 74% 88 29.77 0.0
30 15:35 E 13 10.00 Mostly Cloudy BKN025 82.4 73.4 74% 88 29.78 0.0
30 15:15 E 10 G 16 10.00 A Few Clouds FEW025 80.6 73.4 79% 85 29.78 0.0
30 14:55 E 12 G 17 10.00 A Few Clouds FEW022 80.6 71.6 74% 85 29.77 0.0
30 14:35 E 12 10.00 Fair CLR 80.6 71.6 74% 85 29.78 0.0
30 14:15 E 12 G 20 10.00 A Few Clouds FEW020 78.8 71.6 79% 82 29.79 0.0
30 13:55 E 13 10.00 A Few Clouds FEW018 78.8 71.6 79% 82 29.8 0.0
30 13:35 E 10 10.00 Mostly Cloudy BKN019 77 71.6 83% 78 29.81 0.0
30 13:15 E 9 10.00 Overcast OVC018 75.2 69.8 83% 75 29.82 0.0
30 12:55 E 13 10.00 Overcast OVC017 75.2 69.8 83% 75 29.82 0.0
30 12:35 E 12 10.00 Overcast OVC016 73.4 69.8 89% 29.82 0.0
30 12:15 E 8 G 16 10.00 Overcast OVC015 73.4 69.8 89% 29.83 0.0
30 11:55 E 7 G 14 10.00 Overcast OVC014 73.4 69.8 89% 29.82 0.0
30 11:35 E 10 10.00 Overcast OVC014 73.4 68 83% 29.82 0.0
30 11:15 E 12 10.00 Overcast OVC013 71.6 68 88% 29.81 0.0
30 10:55 NE 13 10.00 Mostly Cloudy BKN013 71.6 68 88% 29.81 0.0
30 10:35 NE 9 10.00 Thunderstorm in Vicinity BKN012 71.6 68 88% 29.81 0.0
30 10:15 NE 9 10.00 Overcast OVC009 71.6 68 88% 29.81 0.0
30 09:55 E 8 10.00 Overcast OVC007 69.8 68 94% 29.81 0.0
30 09:35 NE 8 G 14 10.00 Overcast OVC006 68 66.2 94% 29.82 0.0
30 09:15 NE 8 9.00 Overcast OVC006 68 66.2 94% 29.82 0.0
30 08:55 E 8 9.00 Overcast OVC006 68 66.2 94% 29.82 0.0
30 08:35 E 7 8.00 Overcast OVC005 66.2 66.2 100% 29.81 0.0
30 08:15 E 8 7.00 Overcast OVC005 66.2 66.2 100% 29.81 0.0
30 07:55 NE 8 7.00 Mostly Cloudy BKN005 66.2 66.2 100% 29.81 0.0
30 07:35 NE 8 7.00 Partly Cloudy SCT005 66.2 66.2 100% 29.8 0.0
30 07:15 NE 8 5.00 Fog/Mist FEW005 66.2 66.2 100% 29.8 0.0
30 06:55 Calm 6.00 Fog/Mist FEW004 66.2 66.2 100% 29.81 0.0
30 06:35 NE 7 5.00 Fog/Mist FEW003 FEW033 64.4 64.4 100% 29.8 0.0
30 06:15 NE 7 6.00 Fog/Mist SCT039 SCT060 64.4 64.4 100% 29.79 0.0
30 05:55 NE 5 7.00 Mostly Cloudy SCT036 BKN041 BKN060 64.4 64.4 100% 29.81 0.0
30 05:35 NE 3 6.00 Fog/Mist FEW024 FEW032 BKN039 64.4 64.4 100% 29.81 0.0
30 05:15 Calm 8.00 Mostly Cloudy SCT039 BKN045 BKN055 66.2 64.4 94% 29.81 0.0
30 04:55 E 6 9.00 Mostly Cloudy FEW024 FEW034 BKN042 66.2 66.2 100% 29.8 0.0
30 04:35 Calm 9.00 Mostly Cloudy SCT040 BKN048 BKN060 66.2 66.2 100% 29.8 0.0
30 04:15 E 5 7.00 Partly Cloudy FEW026 FEW042 SCT049 64.4 64.4 100% 29.79 0.0
30 03:55 E 3 8.00 Mostly Cloudy FEW025 BKN042 BKN047 66.2 64.4 94% 29.8 0.0
30 03:35 NE 6 8.00 Mostly Cloudy FEW026 BKN042 66.2 66.2 100% 29.8 0.0
30 03:15 NE 7 9.00 Mostly Cloudy FEW027 BKN041 66.2 66.2 100% 29.8 0.0
30 02:55 NE 7 8.00 Mostly Cloudy BKN039 66.2 66.2 100% 29.81 0.0
30 02:35 NE 3 9.00 Mostly Cloudy SCT035 BKN041 66.2 66.2 100% 29.81 0.0
30 02:15 E 3 10.00 Mostly Cloudy SCT032 BKN037 BKN042 66.2 66.2 100% 29.82 0.0
30 01:55 E 3 9.00 Mostly Cloudy FEW023 SCT030 BKN037 66.2 66.2 100% 29.81 0.0
30 01:35 Calm 10.00 Mostly Cloudy FEW022 SCT033 BKN039 66.2 66.2 100% 29.82 0.0
30 01:15 NE 5 10.00 Mostly Cloudy BKN035 BKN041 BKN047 66.2 66.2 100% 29.82 0.0
30 00:55 NE 6 10.00 Mostly Cloudy SCT036 BKN044 68 66.2 94% 29.83 0.0
30 00:35 NE 6 10.00 Partly Cloudy SCT038 SCT044 68 66.2 94% 29.83 0.0
30 00:15 Vrbl 5 10.00 Partly Cloudy FEW035 SCT041 68 66.2 94% 29.83 0.0
29 23:55 NE 6 10.00 Mostly Cloudy FEW027 SCT031 BKN040 68 66.2 94% 29.84 0.0
29 23:35 E 6 10.00 Mostly Cloudy SCT030 BKN040 BKN045 68 66.2 94% 29.83 0.0
29 23:15 E 5 10.00 Overcast BKN037 OVC045 69.8 68 94% 29.84 0.0
29 22:55 E 6 10.00 Overcast BKN036 OVC042 69.8 68 94% 29.85 0.0
29 22:35 E 7 10.00 Overcast SCT035 OVC044 69.8 68 94% 29.84 0.0
29 22:15 E 7 10.00 Mostly Cloudy FEW032 BKN042 BKN049 69.8 68 94% 29.85 0.0
29 21:55 E 7 10.00 Partly Cloudy FEW031 SCT043 SCT049 69.8 68 94% 29.85 0.0
29 21:35 E 7 10.00 Partly Cloudy SCT042 69.8 68 94% 29.84 0.0
29 21:15 E 8 10.00 Mostly Cloudy FEW030 BKN041 71.6 68 88% 29.83 0.0
Date Time (cdt) Wind (mph) Vis. (mi.) Weather Sky Cond. Air Dwpt Max. Min. Relative Humidity Wind Chill (°F) Heat Index (°F) altimeter (in) sea level (mb) 1 hr 3 hr 6 hr
6 hour
Temperature (ºF) Pressure Precipitation (in)